createdAt,value
2019-05-19T05:42:17.202Z,32.95
2019-05-19T05:48:05.082Z,29.30
2019-05-19T07:22:27.193Z,27.20
2019-05-19T07:34:31.702Z,25.52
2019-05-19T07:40:31.657Z,27.10
2019-05-19T07:43:13.173Z,25.80
2019-05-19T07:49:14.538Z,27.48
2019-05-19T07:54:54.555Z,28.42
2019-05-19T08:19:21.114Z,27.45
2019-05-19T08:22:15.599Z,25.92
2019-05-19T08:24:54.382Z,27.95
2019-05-19T08:27:39.800Z,25.52
2019-05-19T08:30:12.175Z,24.47
2019-05-19T08:33:00.980Z,24.67
2019-05-19T08:35:34.608Z,22.67
2019-05-19T08:38:24.410Z,20.72
2019-05-19T08:40:53.765Z,22.48
2019-05-19T08:46:30.568Z,24.57
2019-05-19T08:49:08.542Z,21.65
2019-05-19T08:51:55.420Z,21.30
2019-05-19T08:54:38.632Z,21.90
2019-05-19T08:57:23.003Z,19.92
2019-05-19T09:00:13.359Z,20.90
2019-05-19T09:03:20.316Z,21.25
2019-05-19T09:06:07.427Z,18.77
2019-05-19T09:08:43.500Z,18.32
2019-05-19T09:11:28.466Z,19.52
2019-05-19T09:14:23.374Z,16.95
2019-05-19T09:17:11.183Z,15.72
2019-05-19T09:27:02.271Z,14.30
2019-05-19T09:29:42.538Z,15.43
2019-05-19T09:36:00.926Z,14.55
2019-05-19T09:38:56.892Z,14.23
2019-05-19T09:41:52.246Z,14.63
2019-05-19T09:44:41.504Z,15.32
2019-05-19T09:47:31.007Z,13.65
2019-05-19T09:53:34.266Z,14.90
2019-05-19T10:19:50.951Z,13.90
2019-05-19T10:24:14.769Z,12.98
2019-05-19T10:31:54.291Z,11.80
2019-05-19T11:38:00.204Z,9.90
2019-05-19T11:44:22.004Z,8.00
2019-05-19T12:09:23.807Z,6.87
2019-05-19T12:26:22.802Z,8.73
2019-05-19T12:32:25.635Z,11.53
2019-05-19T12:35:05.782Z,9.93
2019-05-19T12:37:38.308Z,13.18
2019-05-19T12:40:16.525Z,12.23
2019-05-19T12:42:48.317Z,10.08
2019-05-19T12:45:20.260Z,8.98
2019-05-19T12:47:51.034Z,9.85
2019-05-19T12:50:21.322Z,10.90
2019-05-19T12:52:56.958Z,12.33
2019-05-19T12:55:38.252Z,10.05
2019-05-19T12:58:12.806Z,9.23
2019-05-19T13:00:44.605Z,9.15
2019-05-19T13:03:17.968Z,10.88
2019-05-19T13:05:48.197Z,8.95
2019-05-19T13:08:28.660Z,13.68
2019-05-19T13:11:04.895Z,9.15
2019-05-19T13:13:36.629Z,8.88
2019-05-19T13:16:12.031Z,7.73
2019-05-19T13:18:45.027Z,10.30
2019-05-19T13:21:20.153Z,10.15
2019-05-19T13:23:51.596Z,9.30
2019-05-19T13:26:26.382Z,9.13
2019-05-19T13:28:58.261Z,12.40
2019-05-19T13:31:31.157Z,9.08
2019-05-19T13:34:06.775Z,9.08
2019-05-19T13:36:45.995Z,9.98
2019-05-19T13:39:14.975Z,10.00
2019-05-19T13:41:46.546Z,10.53
2019-05-19T13:44:20.744Z,10.30
2019-05-19T13:46:50.777Z,9.38
2019-05-19T13:49:24.969Z,8.43
2019-05-19T13:51:55.123Z,10.30
2019-05-19T13:54:25.117Z,8.68
2019-05-19T13:56:55.316Z,8.95
2019-05-19T13:59:25.631Z,9.03
2019-05-19T14:01:58.275Z,8.73
2019-05-19T14:04:28.544Z,9.50
2019-05-19T14:07:06.161Z,9.83
2019-05-19T14:09:36.141Z,9.53
2019-05-19T14:12:07.296Z,9.08
2019-05-19T14:14:43.550Z,8.90
2019-05-19T14:17:13.720Z,9.88
2019-05-19T14:19:43.946Z,9.85
2019-05-19T14:22:16.334Z,11.90
2019-05-19T14:24:48.074Z,10.00
2019-05-19T14:27:29.234Z,10.25
2019-05-19T14:29:54.935Z,14.45
2019-05-19T14:32:28.726Z,12.95
2019-05-19T14:35:00.386Z,11.35
2019-05-19T14:37:31.404Z,23.73
2019-05-19T14:40:03.203Z,10.58
2019-05-19T14:42:48.017Z,11.35
2019-05-19T14:45:18.873Z,12.20
2019-05-19T14:47:52.378Z,10.58
2019-05-19T14:50:24.089Z,12.15
2019-05-19T14:52:54.286Z,10.50
2019-05-19T14:55:24.985Z,10.88
2019-05-19T14:57:56.618Z,10.90
2019-05-19T15:00:36.190Z,12.37
2019-05-19T15:03:06.436Z,17.02
2019-05-19T15:05:43.621Z,10.20
2019-05-19T15:08:21.840Z,12.00
2019-05-19T15:10:57.182Z,11.20
2019-05-19T15:16:55.990Z,11.15
2019-05-19T15:19:59.047Z,9.83
2019-05-19T15:22:29.935Z,15.38
2019-05-19T15:25:14.638Z,10.95
2019-05-19T15:33:40.702Z,10.72
2019-05-19T15:36:19.390Z,11.53
2019-05-19T15:39:05.463Z,11.65
2019-05-19T15:41:41.854Z,12.30
2019-05-19T15:44:38.420Z,12.37
2019-05-19T15:47:40.055Z,12.20
2019-05-19T15:54:01.797Z,12.70
2019-05-19T15:59:57.473Z,12.70
2019-05-19T16:12:46.971Z,14.15
2019-05-19T16:15:29.226Z,14.05
2019-05-19T16:18:34.612Z,15.32
2019-05-19T16:21:18.332Z,15.08
2019-05-19T16:24:30.317Z,17.27
2019-05-19T16:30:52.102Z,20.20
2019-05-19T16:33:43.933Z,20.27
2019-05-19T16:39:27.240Z,24.57
2019-05-19T16:42:18.044Z,18.82
2019-05-19T16:45:13.572Z,17.80
2019-05-19T16:51:04.589Z,22.05
2019-05-19T16:53:47.418Z,18.17
2019-05-19T17:06:00.481Z,17.00
2019-05-19T17:09:01.973Z,20.60
2019-05-19T17:17:31.653Z,19.10
2019-05-19T17:20:19.867Z,21.00
2019-05-19T17:23:50.362Z,18.25
2019-05-19T17:26:26.295Z,19.82
2019-05-19T17:29:38.457Z,19.87
2019-05-19T17:32:14.630Z,19.82
2019-05-19T17:45:02.316Z,21.50
2019-05-19T17:55:11.941Z,22.17
2019-05-19T18:11:26.361Z,21.17
2019-05-19T18:15:10.599Z,21.55
2019-05-19T19:01:56.562Z,34.73
2019-05-19T19:08:29.871Z,35.95
2019-05-19T19:11:30.145Z,33.63
2019-05-19T19:20:30.914Z,35.15
2019-05-19T19:23:14.378Z,34.70
2019-05-19T19:25:49.110Z,35.95
2019-05-19T19:31:55.067Z,30.90
2019-05-19T19:34:31.896Z,31.52
2019-05-19T19:37:38.623Z,30.65
2019-05-19T19:46:56.656Z,26.85
2019-05-19T20:04:46.646Z,71.00
2019-05-19T20:24:12.035Z,22.00
2019-05-19T20:26:05.108Z,21.55
2019-05-19T20:35:28.594Z,24.23
2019-05-19T20:40:57.050Z,25.02
2019-05-19T21:14:13.231Z,32.03
2019-05-19T21:37:23.414Z,29.77
2019-05-19T21:49:21.248Z,22.70
2019-05-19T21:52:38.725Z,30.02
2019-05-19T22:25:46.267Z,26.60
2019-05-19T22:54:04.221Z,34.27
